Portada
METAR-TAF:

METAR-TAF

Aeroports :

Arica, Xile

latitud: 18-20S, longitud: 070-20W, altitud: 58 m

Observació

L'informe es va fer fa 39 minuts, a les 12:00 UTC
Vent calma
Temperatura 18°C
Humitat 73%
Pressió 1016 hPa
Visibilitat 10 km o més
Cel cobert a una alçada de 2500 ft

METAR: SCAR 241200Z 00000KT 9999 OVC025 18/13 Q1016

Hora: 09:39 (12:39 UTC)

Pronòstic

L'informe es va fer fa 2 hores i 14 minuts, a les 10:25 UTC
Pronòstic vàlid del 24 a les 12 UTC al 25 a les 12 UTC
Vent 4 kt del Sud/Sud-Oest
Visibilitat 10 km o més
Cel cobert a una alçada de 2500 ft
Evolucionant progressivament
l' 24 a les 15 UTC al 24 a les 17 UTC
Vent 14 kt del Sud/Sud-Oest
Visibilitat 10 km o més
sense núvols per sota de 1500 mi sense presència de cumulonimbus.
Evolucionant progressivament
l' 24 a les 22 UTC al 24 a les 24 UTC
Vent 4 kt del Sud
Cel cobert a una alçada de 2500 ft

TAF: SCAR 241025Z 2412/2512 20004KT 9999 OVC025 TX20/2417Z TN17/2506Z BECMG 2415/2417 21014KT CAVOK BECMG 2422/2424 18004KT OVC025

Observacions i pronòstics meteorològics de més de 4000 aeroports (METAR i TAF).

Les estacions disponibles són els punts grocs i vermells al mapa.

Posi el ratolí al punt desitjat per veure el nom de l'estació.

Feu clic per veure les observacions i els pronòstics meteorològics.

Per canviar el mapa: feu clic els botons verds amb una creu de color negre per apropar; al botó verd amb un guió per allunyar la imatge; o en les fletxes verdes per a mapes adjacents.


METAR-TAF: